Looe, United Kingdom
Current Conditions -  °F | °C
As of 10:50 AM on Monday 20 Oct 2014 (Local Time) from EGHQ Reporting Station
Rain Showers Rain Showers  
Wind Chill: 57°   Ceiling: 4300
Heat Index: 57°   Visibility: 6mi
Dew Point: 52°   Wind: 14mph
Humidity: 82%   Direction: 240°WSW
Pressure: 30.09"   Gusts: NA
Location:  50.36°N, 4.45°W
Report Text: EGHQ 200950Z 24012KT 9999 VCSH FEW016 BKN043 14/11 Q1019
Loading
Personal Weather Stations






























Interactive Weather Map
Tropical Storm Tracking
New forecast layout! Learn more

10-Day Weather Forecast

Advertisements
Track Severe Weather on mobile